Time;durP1;ratioP1;P1;durP2;ratioP2;P2;SDS_P1;SDS_P2;PMS_P1;PMS_P2;Temp;Humidity;BMP_temperature;BMP_pressure;BME280_temperature;BME280_humidity;BME280_pressure;Samples;Min_cycle;Max_cycle;Signal;HPM_P1;HPM_P2
2023/12/11 00:01:32;;;;;;;1.73;0.73;;;;;;;;;;5048471;28;20049;-69
2023/12/11 00:04:01;;;;;;;1.88;0.90;;;;;;;;;;5042148;28;20063;-69
2023/12/11 00:06:29;;;;;;;0.80;0.52;;;;;;;;;;5046438;28;20508;-69
2023/12/11 00:08:58;;;;;;;1.10;0.80;;;;;;;;;;5046175;28;20469;-69
2023/12/11 00:11:26;;;;;;;0.60;0.50;;;;;;;;;;5048175;28;20558;-69
2023/12/11 00:13:56;;;;;;;0.68;0.68;;;;;;;;;;5045247;28;20085;-69
2023/12/11 00:16:24;;;;;;;0.77;0.70;;;;;;;;;;5044907;28;20088;-69
2023/12/11 00:18:53;;;;;;;0.50;0.50;;;;;;;;;;5045869;28;20496;-70
2023/12/11 00:21:21;;;;;;;0.82;0.63;;;;;;;;;;5041158;28;20504;-70
2023/12/11 00:23:50;;;;;;;0.47;0.47;;;;;;;;;;5046674;28;20107;-70
2023/12/11 00:26:18;;;;;;;2.03;0.55;;;;;;;;;;5047640;28;20053;-69
2023/12/11 00:28:47;;;;;;;1.58;0.60;;;;;;;;;;5044407;28;20457;-69
2023/12/11 00:31:17;;;;;;;0.40;0.40;;;;;;;;;;5042116;28;20094;-69
2023/12/11 00:33:46;;;;;;;0.40;0.40;;;;;;;;;;5046091;28;20139;-69
2023/12/11 00:36:15;;;;;;;0.60;0.60;;;;;;;;;;5044064;28;20045;-70
2023/12/11 00:38:43;;;;;;;0.60;0.60;;;;;;;;;;5043618;28;20106;-70
2023/12/11 00:41:11;;;;;;;0.68;0.40;;;;;;;;;;5046764;28;20607;-69
2023/12/11 00:43:40;;;;;;;0.40;0.40;;;;;;;;;;5041833;28;20053;-70
2023/12/11 00:46:14;;;;;;;0.40;0.40;;;;;;;;;;5047558;28;20059;-70
2023/12/11 00:48:43;;;;;;;0.40;0.40;;;;;;;;;;5045420;28;20045;-70
2023/12/11 00:51:16;;;;;;;0.40;0.40;;;;;;;;;;5046961;28;20044;-70
2023/12/11 00:53:44;;;;;;;0.40;0.40;;;;;;;;;;5042861;28;20571;-70
2023/12/11 00:56:13;;;;;;;0.40;0.40;;;;;;;;;;5047346;28;20102;-70
2023/12/11 00:58:41;;;;;;;0.57;0.57;;;;;;;;;;5044951;28;20049;-70
2023/12/11 01:01:10;;;;;;;0.50;0.50;;;;;;;;;;5046872;28;20098;-71
2023/12/11 01:03:38;;;;;;;0.43;0.43;;;;;;;;;;5044457;28;20056;-70
2023/12/11 01:06:09;;;;;;;0.40;0.40;;;;;;;;;;5041841;28;20076;-68
2023/12/11 01:08:39;;;;;;;0.40;0.40;;;;;;;;;;5045354;28;20049;-70
2023/12/11 01:11:08;;;;;;;1.20;0.40;;;;;;;;;;5050617;28;20053;-70
2023/12/11 01:13:37;;;;;;;0.50;0.50;;;;;;;;;;5049453;28;20102;-71
2023/12/11 01:16:06;;;;;;;0.50;0.50;;;;;;;;;;5045646;28;20467;-69
2023/12/11 01:18:34;;;;;;;0.30;0.30;;;;;;;;;;5046660;28;20498;-69
2023/12/11 01:21:03;;;;;;;0.40;0.40;;;;;;;;;;5047741;28;20059;-69
2023/12/11 01:23:33;;;;;;;0.40;0.40;;;;;;;;;;5048418;28;20042;-69
2023/12/11 01:26:01;;;;;;;0.32;0.32;;;;;;;;;;5050048;28;20556;-69
2023/12/11 01:28:30;;;;;;;1.75;0.40;;;;;;;;;;5048121;28;20662;-69
2023/12/11 01:30:58;;;;;;;1.75;0.35;;;;;;;;;;5050139;28;20098;-69
2023/12/11 01:33:27;;;;;;;0.45;0.45;;;;;;;;;;5050530;28;20053;-69
2023/12/11 01:35:55;;;;;;;0.80;0.50;;;;;;;;;;5049705;28;20045;-69
2023/12/11 01:38:24;;;;;;;0.40;0.40;;;;;;;;;;5046788;28;20057;-69
2023/12/11 01:40:54;;;;;;;0.52;0.40;;;;;;;;;;5049914;28;20129;-69
2023/12/11 01:43:22;;;;;;;2.05;0.60;;;;;;;;;;5044230;28;20053;-69
2023/12/11 01:45:55;;;;;;;0.80;0.70;;;;;;;;;;5048335;28;20456;-69
2023/12/11 01:48:23;;;;;;;0.40;0.40;;;;;;;;;;5047892;28;20053;-70
2023/12/11 01:50:52;;;;;;;0.77;0.77;;;;;;;;;;5049230;28;20436;-69
2023/12/11 01:53:20;;;;;;;0.82;0.40;;;;;;;;;;5045093;28;20146;-69
2023/12/11 01:55:49;;;;;;;0.40;0.40;;;;;;;;;;5047645;28;20073;-70
2023/12/11 01:58:19;;;;;;;0.90;0.50;;;;;;;;;;5047257;28;20150;-69
2023/12/11 02:00:48;;;;;;;0.60;0.40;;;;;;;;;;5045801;28;20041;-70
2023/12/11 02:03:16;;;;;;;0.40;0.40;;;;;;;;;;5051129;28;20053;-70
2023/12/11 02:05:45;;;;;;;1.30;0.40;;;;;;;;;;5043803;28;20049;-69
2023/12/11 02:08:14;;;;;;;0.75;0.60;;;;;;;;;;5049075;28;20045;-69
2023/12/11 02:10:42;;;;;;;0.43;0.43;;;;;;;;;;5047399;28;20045;-70
2023/12/11 02:13:11;;;;;;;0.65;0.60;;;;;;;;;;5049110;28;20049;-70
2023/12/11 02:15:42;;;;;;;0.30;0.30;;;;;;;;;;5046924;28;20050;-70
2023/12/11 02:18:11;;;;;;;0.40;0.40;;;;;;;;;;5046124;28;20037;-70
2023/12/11 02:20:40;;;;;;;0.52;0.40;;;;;;;;;;5046333;28;20102;-70
2023/12/11 02:23:12;;;;;;;0.50;0.50;;;;;;;;;;5050128;28;20260;-70
2023/12/11 02:25:41;;;;;;;1.05;0.50;;;;;;;;;;5045914;28;20053;-71
2023/12/11 02:28:11;;;;;;;0.45;0.45;;;;;;;;;;5049018;28;20064;-70
2023/12/11 02:30:50;;;;;;;1.20;0.60;;;;;;;;;;5047615;28;20056;-70
2023/12/11 02:33:18;;;;;;;0.63;0.60;;;;;;;;;;5046869;28;20053;-69
2023/12/11 02:35:46;;;;;;;0.50;0.50;;;;;;;;;;5048754;28;20596;-70
2023/12/11 02:38:15;;;;;;;1.23;1.00;;;;;;;;;;5047367;28;20138;-71
2023/12/11 02:40:43;;;;;;;0.40;0.40;;;;;;;;;;5044228;28;20071;-70
2023/12/11 02:43:13;;;;;;;0.50;0.50;;;;;;;;;;5049499;28;20053;-71
2023/12/11 02:45:43;;;;;;;0.60;0.50;;;;;;;;;;5049210;28;20072;-70
2023/12/11 02:48:11;;;;;;;0.98;0.50;;;;;;;;;;5049104;28;20052;-70
2023/12/11 02:50:40;;;;;;;1.00;0.60;;;;;;;;;;5049569;28;20132;-70
2023/12/11 02:53:09;;;;;;;0.73;0.50;;;;;;;;;;5046345;28;20123;-70
2023/12/11 02:55:37;;;;;;;2.17;0.50;;;;;;;;;;5046167;28;20045;-71
2023/12/11 02:58:06;;;;;;;2.90;0.98;;;;;;;;;;5047901;28;20045;-71
2023/12/11 03:00:36;;;;;;;0.40;0.40;;;;;;;;;;5047111;28;20434;-70
2023/12/11 03:03:05;;;;;;;0.60;0.60;;;;;;;;;;5046457;28;20049;-70
2023/12/11 03:05:33;;;;;;;1.25;0.75;;;;;;;;;;5046068;28;20080;-70
2023/12/11 03:08:03;;;;;;;0.65;0.57;;;;;;;;;;5045313;28;20335;-70
2023/12/11 03:10:32;;;;;;;3.13;0.70;;;;;;;;;;5044704;28;20049;-71
2023/12/11 03:13:00;;;;;;;0.57;0.50;;;;;;;;;;5042923;28;20176;-71
2023/12/11 03:15:29;;;;;;;0.80;0.60;;;;;;;;;;5045725;28;20044;-71
2023/12/11 03:17:59;;;;;;;1.13;0.55;;;;;;;;;;5046026;28;20049;-72
2023/12/11 03:20:27;;;;;;;1.10;0.65;;;;;;;;;;5046833;28;20041;-71
2023/12/11 03:22:56;;;;;;;0.85;0.60;;;;;;;;;;5044960;28;20064;-70
2023/12/11 03:25:24;;;;;;;2.38;0.75;;;;;;;;;;5044527;28;20045;-71
2023/12/11 03:27:52;;;;;;;0.85;0.60;;;;;;;;;;5048895;28;20060;-71
2023/12/11 03:30:20;;;;;;;2.22;0.80;;;;;;;;;;5045781;28;20091;-73
2023/12/11 03:32:49;;;;;;;4.10;0.65;;;;;;;;;;5048085;28;20052;-71
2023/12/11 03:35:18;;;;;;;0.80;0.60;;;;;;;;;;5048477;28;20056;-71
2023/12/11 03:37:47;;;;;;;0.88;0.60;;;;;;;;;;5046989;28;20056;-71
2023/12/11 03:40:15;;;;;;;3.78;0.70;;;;;;;;;;5045768;28;20099;-71
2023/12/11 03:42:44;;;;;;;0.50;0.50;;;;;;;;;;5045263;28;20044;-71
2023/12/11 03:45:14;;;;;;;0.73;0.60;;;;;;;;;;5046950;28;20099;-71
2023/12/11 03:47:43;;;;;;;0.57;0.50;;;;;;;;;;5045634;28;20134;-71
2023/12/11 03:50:11;;;;;;;0.82;0.82;;;;;;;;;;5046503;28;20045;-71
2023/12/11 03:52:41;;;;;;;1.25;0.60;;;;;;;;;;5047525;28;20068;-71
2023/12/11 03:55:09;;;;;;;0.73;0.50;;;;;;;;;;5046919;28;20051;-70
2023/12/11 03:57:38;;;;;;;0.93;0.70;;;;;;;;;;5044218;28;20056;-70
2023/12/11 04:00:08;;;;;;;1.35;0.80;;;;;;;;;;5044235;28;20045;-71
2023/12/11 04:02:37;;;;;;;0.65;0.60;;;;;;;;;;5044727;28;20509;-70
2023/12/11 04:05:05;;;;;;;2.17;0.63;;;;;;;;;;5043576;28;20099;-71
2023/12/11 04:07:34;;;;;;;0.50;0.50;;;;;;;;;;5042918;28;20045;-71
2023/12/11 04:10:04;;;;;;;2.55;0.60;;;;;;;;;;5048500;28;20055;-70
2023/12/11 04:12:33;;;;;;;3.13;0.73;;;;;;;;;;5045789;28;20215;-70
2023/12/11 04:15:01;;;;;;;0.93;0.60;;;;;;;;;;5041922;28;20072;-70
2023/12/11 04:17:30;;;;;;;1.65;0.57;;;;;;;;;;5043599;28;20068;-70
2023/12/11 04:19:58;;;;;;;0.75;0.50;;;;;;;;;;5045540;28;20505;-70
2023/12/11 04:22:27;;;;;;;0.60;0.60;;;;;;;;;;5048210;28;20051;-71
2023/12/11 04:24:56;;;;;;;1.15;0.50;;;;;;;;;;5047630;28;20102;-71
2023/12/11 04:27:26;;;;;;;1.58;0.70;;;;;;;;;;5045682;28;20057;-71
2023/12/11 04:29:54;;;;;;;1.38;0.63;;;;;;;;;;5046422;28;20516;-71
2023/12/11 04:32:23;;;;;;;0.55;0.50;;;;;;;;;;5047707;28;20064;-71
2023/12/11 04:34:52;;;;;;;1.10;0.98;;;;;;;;;;5047998;28;20081;-71
2023/12/11 04:37:20;;;;;;;0.50;0.50;;;;;;;;;;5043074;28;20110;-71
2023/12/11 04:39:48;;;;;;;1.38;0.60;;;;;;;;;;5047400;28;20353;-70
2023/12/11 04:42:17;;;;;;;0.85;0.50;;;;;;;;;;5043224;28;20454;-71
2023/12/11 04:44:47;;;;;;;0.50;0.50;;;;;;;;;;5045205;28;20045;-71
2023/12/11 04:47:15;;;;;;;0.50;0.50;;;;;;;;;;5043422;28;20256;-71
2023/12/11 04:49:43;;;;;;;0.77;0.55;;;;;;;;;;5046214;28;20451;-71
2023/12/11 04:52:12;;;;;;;0.82;0.70;;;;;;;;;;5044628;28;20049;-71
2023/12/11 04:54:42;;;;;;;2.35;0.70;;;;;;;;;;5047986;28;20112;-71
2023/12/11 04:57:11;;;;;;;0.50;0.50;;;;;;;;;;5039576;28;20053;-71
2023/12/11 04:59:39;;;;;;;0.80;0.60;;;;;;;;;;5042815;28;20119;-71
2023/12/11 05:02:12;;;;;;;1.85;0.73;;;;;;;;;;5040807;28;20045;-71
2023/12/11 05:04:41;;;;;;;0.50;0.50;;;;;;;;;;5047195;28;20049;-71
2023/12/11 05:07:09;;;;;;;2.28;0.63;;;;;;;;;;5044893;28;20292;-71
2023/12/11 05:09:38;;;;;;;0.50;0.50;;;;;;;;;;5046240;28;20045;-71
2023/12/11 05:12:07;;;;;;;0.73;0.60;;;;;;;;;;5045687;28;20057;-71
2023/12/11 05:14:35;;;;;;;0.60;0.50;;;;;;;;;;5046595;28;20498;-71
2023/12/11 05:17:04;;;;;;;1.73;0.70;;;;;;;;;;5039750;28;20037;-70
2023/12/11 05:19:35;;;;;;;1.65;0.60;;;;;;;;;;5041870;28;20067;-71
2023/12/11 05:22:04;;;;;;;2.13;0.70;;;;;;;;;;5043694;28;20048;-71
2023/12/11 05:24:33;;;;;;;2.28;0.70;;;;;;;;;;5046303;28;20156;-72
2023/12/11 05:27:01;;;;;;;0.68;0.50;;;;;;;;;;5042671;28;20055;-71
2023/12/11 05:29:29;;;;;;;1.35;0.50;;;;;;;;;;5042887;28;20045;-72
2023/12/11 05:31:58;;;;;;;0.50;0.50;;;;;;;;;;5045038;28;20045;-72
2023/12/11 05:34:26;;;;;;;0.65;0.52;;;;;;;;;;5043888;28;20076;-72
2023/12/11 05:36:56;;;;;;;0.73;0.50;;;;;;;;;;5043620;28;20053;-72
2023/12/11 05:39:25;;;;;;;0.77;0.52;;;;;;;;;;5045085;28;20429;-72
2023/12/11 05:41:53;;;;;;;0.65;0.65;;;;;;;;;;5044264;28;20052;-71
2023/12/11 05:44:22;;;;;;;0.50;0.50;;;;;;;;;;5044700;28;20580;-71
2023/12/11 05:46:50;;;;;;;5.10;0.75;;;;;;;;;;5044212;28;20119;-71
2023/12/11 05:49:18;;;;;;;2.75;1.00;;;;;;;;;;5044748;28;20551;-71
2023/12/11 05:51:47;;;;;;;0.50;0.50;;;;;;;;;;5043562;28;20052;-71
2023/12/11 05:54:17;;;;;;;0.40;0.40;;;;;;;;;;5043100;28;20060;-71
2023/12/11 05:56:45;;;;;;;4.25;1.00;;;;;;;;;;5044354;28;20414;-71
2023/12/11 05:59:14;;;;;;;0.88;0.50;;;;;;;;;;5048470;28;20041;-71
2023/12/11 06:01:42;;;;;;;0.73;0.65;;;;;;;;;;5047690;28;20151;-71
2023/12/11 06:04:11;;;;;;;1.00;0.57;;;;;;;;;;5049746;28;20325;-70
2023/12/11 06:06:39;;;;;;;3.08;0.70;;;;;;;;;;5045111;28;20053;-70
2023/12/11 06:09:08;;;;;;;2.63;0.75;;;;;;;;;;5045205;28;20041;-71
2023/12/11 06:11:38;;;;;;;1.15;0.80;;;;;;;;;;5043991;28;20095;-71
2023/12/11 06:14:06;;;;;;;0.85;0.68;;;;;;;;;;5045938;28;20099;-71
2023/12/11 06:16:35;;;;;;;1.27;1.00;;;;;;;;;;5043964;28;20053;-70
2023/12/11 06:19:04;;;;;;;1.65;0.70;;;;;;;;;;5046237;28;20045;-69
2023/12/11 06:21:32;;;;;;;0.75;0.70;;;;;;;;;;5045475;28;20591;-70
2023/12/11 06:24:01;;;;;;;3.35;0.70;;;;;;;;;;5046103;28;20037;-65
2023/12/11 06:26:30;;;;;;;0.68;0.68;;;;;;;;;;5048832;28;20045;-65
2023/12/11 06:29:00;;;;;;;0.80;0.80;;;;;;;;;;5049488;28;20041;-65
2023/12/11 06:31:29;;;;;;;2.13;0.70;;;;;;;;;;5048632;28;20326;-66
2023/12/11 06:33:58;;;;;;;1.25;0.90;;;;;;;;;;5046170;28;20048;-63
2023/12/11 06:36:28;;;;;;;1.88;0.70;;;;;;;;;;5049838;28;20045;-64
2023/12/11 06:38:57;;;;;;;0.73;0.60;;;;;;;;;;5050492;28;20053;-68
2023/12/11 06:41:25;;;;;;;1.38;0.90;;;;;;;;;;5047374;28;20040;-66
2023/12/11 06:43:54;;;;;;;0.60;0.60;;;;;;;;;;5043096;28;20053;-64
2023/12/11 06:46:28;;;;;;;0.63;0.60;;;;;;;;;;5048463;28;20124;-65
2023/12/11 06:48:57;;;;;;;1.88;0.80;;;;;;;;;;5047757;28;20570;-64
2023/12/11 06:51:27;;;;;;;0.60;0.60;;;;;;;;;;5048234;28;20048;-63
2023/12/11 06:53:58;;;;;;;0.60;0.57;;;;;;;;;;5047395;28;20048;-64
2023/12/11 06:56:30;;;;;;;1.02;1.00;;;;;;;;;;5046777;28;20041;-65
2023/12/11 06:59:00;;;;;;;0.82;0.65;;;;;;;;;;5044503;28;20057;-65
2023/12/11 07:01:31;;;;;;;1.08;0.65;;;;;;;;;;5049431;28;20045;-64
2023/12/11 07:03:59;;;;;;;1.73;0.55;;;;;;;;;;5045470;28;20072;-65
2023/12/11 07:06:28;;;;;;;1.10;0.68;;;;;;;;;;5045941;28;20041;-65
2023/12/11 07:08:57;;;;;;;0.45;0.45;;;;;;;;;;5045708;28;20464;-64
2023/12/11 07:11:25;;;;;;;0.63;0.52;;;;;;;;;;5048997;28;20291;-63
2023/12/11 07:13:54;;;;;;;1.50;0.68;;;;;;;;;;5046231;28;20076;-66
2023/12/11 07:16:24;;;;;;;0.50;0.50;;;;;;;;;;5046196;28;21033;-65
2023/12/11 07:18:54;;;;;;;0.63;0.60;;;;;;;;;;5047396;28;20049;-65
2023/12/11 07:21:23;;;;;;;3.33;1.02;;;;;;;;;;5048630;28;20080;-67
2023/12/11 07:23:51;;;;;;;0.50;0.50;;;;;;;;;;5048549;28;20071;-65
2023/12/11 07:26:20;;;;;;;1.10;0.60;;;;;;;;;;5048884;28;20132;-64
2023/12/11 07:28:49;;;;;;;1.02;0.60;;;;;;;;;;5045649;28;20056;-67
2023/12/11 07:31:17;;;;;;;0.57;0.55;;;;;;;;;;5049546;28;20390;-65
2023/12/11 07:33:46;;;;;;;0.70;0.57;;;;;;;;;;5047971;28;20048;-66
2023/12/11 07:36:17;;;;;;;1.55;0.73;;;;;;;;;;5046261;28;20041;-66
2023/12/11 07:38:45;;;;;;;0.52;0.52;;;;;;;;;;5047001;28;20123;-65
2023/12/11 07:41:20;;;;;;;0.73;0.68;;;;;;;;;;5049528;28;20143;-66
2023/12/11 07:43:48;;;;;;;1.13;0.82;;;;;;;;;;5045463;28;20442;-65
2023/12/11 07:46:17;;;;;;;2.85;0.50;;;;;;;;;;5046204;28;20040;-66
2023/12/11 07:48:46;;;;;;;0.57;0.55;;;;;;;;;;5040467;28;20315;-67
2023/12/11 07:51:20;;;;;;;0.70;0.70;;;;;;;;;;5048440;28;20060;-66
2023/12/11 07:53:48;;;;;;;1.40;0.90;;;;;;;;;;5046411;28;20134;-67
2023/12/11 07:56:20;;;;;;;0.50;0.50;;;;;;;;;;5041846;28;20126;-65
2023/12/11 07:58:49;;;;;;;1.05;0.60;;;;;;;;;;5042771;28;20391;-66
2023/12/11 08:01:18;;;;;;;0.50;0.50;;;;;;;;;;5046622;28;20057;-68
2023/12/11 08:03:46;;;;;;;0.63;0.50;;;;;;;;;;5044435;28;20044;-67
2023/12/11 08:06:15;;;;;;;0.80;0.60;;;;;;;;;;5046007;28;20084;-68
2023/12/11 08:08:45;;;;;;;0.45;0.43;;;;;;;;;;5037705;28;20057;-66
2023/12/11 08:11:17;;;;;;;4.82;0.75;;;;;;;;;;5045253;28;20052;-66
2023/12/11 08:13:46;;;;;;;0.40;0.40;;;;;;;;;;5047443;28;20099;-71
2023/12/11 08:16:15;;;;;;;0.60;0.50;;;;;;;;;;5043227;28;20053;-66
2023/12/11 08:18:44;;;;;;;0.77;0.77;;;;;;;;;;5046033;28;20053;-66
2023/12/11 08:21:13;;;;;;;0.50;0.50;;;;;;;;;;5047107;28;20077;-67
2023/12/11 08:23:43;;;;;;;0.40;0.40;;;;;;;;;;5046555;28;20143;-65
2023/12/11 08:26:17;;;;;;;1.80;0.77;;;;;;;;;;5045945;28;20044;-71
2023/12/11 08:28:46;;;;;;;0.40;0.40;;;;;;;;;;5046671;28;20125;-67
2023/12/11 08:31:15;;;;;;;0.55;0.55;;;;;;;;;;5044458;28;20045;-65
2023/12/11 08:33:44;;;;;;;1.15;0.57;;;;;;;;;;5046819;28;20435;-65
2023/12/11 08:36:13;;;;;;;0.77;0.65;;;;;;;;;;5046562;28;20060;-65
2023/12/11 08:38:41;;;;;;;0.88;0.60;;;;;;;;;;5046923;28;20406;-65
2023/12/11 08:41:10;;;;;;;0.85;0.60;;;;;;;;;;5045404;28;20482;-66
2023/12/11 08:43:40;;;;;;;2.25;0.55;;;;;;;;;;5045022;28;20077;-66
2023/12/11 08:46:09;;;;;;;1.35;0.60;;;;;;;;;;5044899;28;20544;-65
2023/12/11 08:48:37;;;;;;;0.70;0.60;;;;;;;;;;5046322;28;20418;-65
2023/12/11 08:51:06;;;;;;;1.75;0.70;;;;;;;;;;5045517;28;20045;-65
2023/12/11 08:53:34;;;;;;;0.60;0.60;;;;;;;;;;5047352;28;20080;-65
2023/12/11 08:56:03;;;;;;;0.88;0.60;;;;;;;;;;5047218;28;20048;-68
2023/12/11 08:58:31;;;;;;;1.70;0.68;;;;;;;;;;5046073;28;20838;-68
2023/12/11 09:01:03;;;;;;;0.50;0.50;;;;;;;;;;5044377;28;20106;-64
2023/12/11 09:03:31;;;;;;;1.45;1.00;;;;;;;;;;5046268;28;20501;-65
2023/12/11 09:06:00;;;;;;;1.58;1.00;;;;;;;;;;5045698;28;20059;-68
2023/12/11 09:08:29;;;;;;;1.33;1.10;;;;;;;;;;5046246;28;20051;-65
2023/12/11 09:10:57;;;;;;;4.03;1.20;;;;;;;;;;5040814;28;20049;-66
2023/12/11 09:13:26;;;;;;;1.77;1.10;;;;;;;;;;5046070;28;20194;-64
2023/12/11 09:15:56;;;;;;;0.70;0.65;;;;;;;;;;5037523;28;20183;-64
2023/12/11 09:18:27;;;;;;;0.70;0.60;;;;;;;;;;5045886;28;20084;-67
2023/12/11 09:20:55;;;;;;;2.28;0.80;;;;;;;;;;5045689;28;20505;-65
2023/12/11 09:23:24;;;;;;;4.57;0.77;;;;;;;;;;5042008;28;20053;-65
2023/12/11 09:25:52;;;;;;;1.27;0.73;;;;;;;;;;5046300;28;20064;-66
2023/12/11 09:28:21;;;;;;;0.75;0.52;;;;;;;;;;5044885;28;20048;-64
2023/12/11 09:30:49;;;;;;;1.20;0.70;;;;;;;;;;5046838;28;20092;-66
2023/12/11 09:33:18;;;;;;;0.90;0.60;;;;;;;;;;5051177;28;20049;-65
2023/12/11 09:35:48;;;;;;;0.98;0.55;;;;;;;;;;5048881;28;20045;-66
2023/12/11 09:38:17;;;;;;;1.10;0.60;;;;;;;;;;5045282;28;20041;-67
2023/12/11 09:40:45;;;;;;;0.60;0.50;;;;;;;;;;5051119;28;20099;-63
2023/12/11 09:43:14;;;;;;;0.77;0.50;;;;;;;;;;5048661;28;20486;-65
2023/12/11 09:45:43;;;;;;;0.50;0.50;;;;;;;;;;5047938;28;20045;-67
2023/12/11 09:48:12;;;;;;;0.52;0.50;;;;;;;;;;5049887;28;20052;-65
2023/12/11 09:50:42;;;;;;;0.65;0.50;;;;;;;;;;5047991;28;20072;-64
2023/12/11 09:53:13;;;;;;;0.98;0.52;;;;;;;;;;5047482;28;20049;-63
2023/12/11 09:55:43;;;;;;;0.65;0.63;;;;;;;;;;5051036;28;20037;-64
2023/12/11 09:58:12;;;;;;;3.30;0.60;;;;;;;;;;5048204;28;20053;-65
2023/12/11 10:00:42;;;;;;;0.95;0.57;;;;;;;;;;5048953;28;20041;-69
2023/12/11 10:03:11;;;;;;;15.40;11.27;;;;;;;;;;5051107;28;20115;-67
2023/12/11 10:05:39;;;;;;;4.10;3.35;;;;;;;;;;5046420;28;20459;-64
2023/12/11 10:08:08;;;;;;;4.70;2.80;;;;;;;;;;5044957;28;20083;-64
2023/12/11 10:10:38;;;;;;;5.00;3.88;;;;;;;;;;5045579;28;20107;-65
2023/12/11 10:13:07;;;;;;;3.75;1.98;;;;;;;;;;5047829;28;20045;-65
2023/12/11 10:15:37;;;;;;;1.88;1.67;;;;;;;;;;5046806;28;20140;-63
2023/12/11 10:18:07;;;;;;;1.48;1.00;;;;;;;;;;5046788;28;20151;-68
2023/12/11 10:20:37;;;;;;;1.45;1.23;;;;;;;;;;5047551;28;20049;-74
2023/12/11 10:23:12;;;;;;;0.82;0.63;;;;;;;;;;5048959;28;20055;-64
2023/12/11 10:25:44;;;;;;;1.20;0.98;;;;;;;;;;5046161;28;20194;-67
2023/12/11 10:28:13;;;;;;;1.67;0.70;;;;;;;;;;5048658;28;20055;-65
2023/12/11 10:30:52;;;;;;;2.58;0.70;;;;;;;;;;5044173;28;20503;-65
2023/12/11 10:33:21;;;;;;;0.50;0.50;;;;;;;;;;5045869;28;20059;-63
2023/12/11 10:35:50;;;;;;;3.60;0.60;;;;;;;;;;5041890;28;20131;-69
2023/12/11 10:38:23;;;;;;;0.40;0.40;;;;;;;;;;5047567;28;20417;-64
2023/12/11 10:40:54;;;;;;;2.17;0.65;;;;;;;;;;5044190;28;20060;-65
2023/12/11 10:43:23;;;;;;;0.50;0.50;;;;;;;;;;5045801;28;20045;-65
2023/12/11 10:45:51;;;;;;;0.73;0.50;;;;;;;;;;5044963;28;20148;-66
2023/12/11 10:48:21;;;;;;;0.43;0.43;;;;;;;;;;5044593;28;20395;-71
2023/12/11 10:50:51;;;;;;;0.60;0.60;;;;;;;;;;5046989;28;20510;-64
2023/12/11 10:53:19;;;;;;;0.68;0.60;;;;;;;;;;5047886;28;20068;-64
2023/12/11 10:55:48;;;;;;;1.70;0.70;;;;;;;;;;5048129;28;20053;-67
2023/12/11 10:58:18;;;;;;;0.65;0.47;;;;;;;;;;5049873;28;20053;-63
2023/12/11 11:00:47;;;;;;;0.70;0.60;;;;;;;;;;5045987;28;20052;-64
2023/12/11 11:03:16;;;;;;;0.73;0.50;;;;;;;;;;5047222;28;20056;-65
2023/12/11 11:05:45;;;;;;;1.75;0.50;;;;;;;;;;5043352;28;20099;-64
2023/12/11 11:08:20;;;;;;;0.40;0.40;;;;;;;;;;5045078;28;20049;-66
2023/12/11 11:10:51;;;;;;;1.10;0.75;;;;;;;;;;5048693;28;20067;-68
2023/12/11 11:13:23;;;;;;;1.92;0.60;;;;;;;;;;5049353;28;20474;-67
2023/12/11 11:15:53;;;;;;;0.68;0.50;;;;;;;;;;5047547;28;20434;-70
2023/12/11 11:18:22;;;;;;;7.05;4.13;;;;;;;;;;5048468;28;20585;-66
2023/12/11 11:21:10;;;;;;;2.08;1.88;;;;;;;;;;5045205;28;20072;-68
2023/12/11 11:23:43;;;;;;;1.30;1.10;;;;;;;;;;5048564;28;20060;-66
2023/12/11 11:26:32;;;;;;;0.85;0.82;;;;;;;;;;5047697;28;20057;-63
2023/12/11 11:29:02;;;;;;;0.50;0.50;;;;;;;;;;5059145;28;20052;-67
2023/12/11 11:31:48;;;;;;;0.98;0.60;;;;;;;;;;5041773;28;20044;-71
2023/12/11 11:34:17;;;;;;;0.88;0.70;;;;;;;;;;5046735;28;20134;-66
2023/12/11 11:36:47;;;;;;;0.50;0.50;;;;;;;;;;5046834;28;20119;-65
2023/12/11 11:39:16;;;;;;;1.63;0.60;;;;;;;;;;5043934;28;20073;-67
2023/12/11 11:41:44;;;;;;;0.47;0.47;;;;;;;;;;5045231;28;20045;-67
2023/12/11 11:44:16;;;;;;;2.63;0.60;;;;;;;;;;5048653;28;20053;-67
2023/12/11 11:46:54;;;;;;;0.30;0.30;;;;;;;;;;5044762;28;20045;-64
2023/12/11 11:49:31;;;;;;;0.68;0.50;;;;;;;;;;5045694;28;20049;-71
2023/12/11 11:52:00;;;;;;;0.63;0.50;;;;;;;;;;5045127;28;20049;-66
2023/12/11 11:54:30;;;;;;;0.82;0.50;;;;;;;;;;5043992;28;20047;-64
2023/12/11 11:56:59;;;;;;;0.40;0.40;;;;;;;;;;5041896;28;20052;-73
2023/12/11 11:59:29;;;;;;;0.75;0.50;;;;;;;;;;5047516;28;20562;-63
2023/12/11 12:01:58;;;;;;;0.40;0.40;;;;;;;;;;5043771;28;20053;-66
2023/12/11 12:04:27;;;;;;;1.30;0.45;;;;;;;;;;5047913;28;20074;-65
2023/12/11 12:06:57;;;;;;;0.52;0.52;;;;;;;;;;5041866;28;20061;-66
2023/12/11 12:09:26;;;;;;;0.30;0.30;;;;;;;;;;5047255;28;20063;-64
2023/12/11 12:11:55;;;;;;;0.38;0.38;;;;;;;;;;5048318;28;20045;-64
2023/12/11 12:14:23;;;;;;;0.77;0.50;;;;;;;;;;5047740;28;20057;-69
2023/12/11 12:16:53;;;;;;;0.57;0.50;;;;;;;;;;5044694;28;20489;-65
2023/12/11 12:19:31;;;;;;;0.75;0.45;;;;;;;;;;5045801;28;20045;-66
2023/12/11 12:22:01;;;;;;;0.70;0.30;;;;;;;;;;5047032;28;20041;-70
2023/12/11 12:24:31;;;;;;;1.75;0.40;;;;;;;;;;5045675;28;20067;-65
2023/12/11 12:27:01;;;;;;;0.77;0.35;;;;;;;;;;5046851;28;20512;-69
2023/12/11 12:29:30;;;;;;;0.52;0.50;;;;;;;;;;5045294;28;20102;-68
2023/12/11 12:32:00;;;;;;;1.02;0.50;;;;;;;;;;5047098;28;20057;-64
2023/12/11 12:34:31;;;;;;;0.50;0.40;;;;;;;;;;5043825;28;20049;-63
2023/12/11 12:37:03;;;;;;;0.50;0.50;;;;;;;;;;5046939;28;20516;-64
2023/12/11 12:39:32;;;;;;;0.30;0.30;;;;;;;;;;5045619;28;20131;-65
2023/12/11 12:42:00;;;;;;;0.40;0.40;;;;;;;;;;5045738;28;20052;-67
2023/12/11 12:44:28;;;;;;;0.40;0.40;;;;;;;;;;5038422;28;20049;-65
2023/12/11 12:47:02;;;;;;;0.55;0.50;;;;;;;;;;5042209;28;20041;-64
2023/12/11 12:49:32;;;;;;;1.03;0.50;;;;;;;;;;5048635;28;20078;-65
2023/12/11 12:52:01;;;;;;;0.40;0.40;;;;;;;;;;5046831;28;20084;-67
2023/12/11 12:54:47;;;;;;;0.30;0.30;;;;;;;;;;5045039;28;20048;-68
2023/12/11 12:57:16;;;;;;;0.40;0.40;;;;;;;;;;5046409;28;20110;-63
2023/12/11 12:59:45;;;;;;;0.50;0.50;;;;;;;;;;5045068;28;20052;-65
2023/12/11 13:02:15;;;;;;;0.98;0.40;;;;;;;;;;5043524;28;20041;-67
2023/12/11 13:04:50;;;;;;;0.57;0.57;;;;;;;;;;5046694;28;20041;-66
2023/12/11 13:07:21;;;;;;;0.50;0.50;;;;;;;;;;5049370;28;20067;-73
2023/12/11 13:09:51;;;;;;;0.57;0.40;;;;;;;;;;5049475;28;20140;-65
2023/12/11 13:12:20;;;;;;;0.45;0.45;;;;;;;;;;5051377;28;20049;-64
2023/12/11 13:14:49;;;;;;;0.40;0.40;;;;;;;;;;5048191;28;20095;-64
2023/12/11 13:17:19;;;;;;;0.30;0.30;;;;;;;;;;5044971;28;20509;-67
2023/12/11 13:19:48;;;;;;;0.50;0.50;;;;;;;;;;5046042;28;20051;-63
2023/12/11 13:22:17;;;;;;;0.40;0.40;;;;;;;;;;5045371;28;20049;-65
2023/12/11 13:24:46;;;;;;;0.30;0.30;;;;;;;;;;5047576;28;20442;-69
2023/12/11 13:27:15;;;;;;;0.40;0.40;;;;;;;;;;5048573;28;20137;-65
2023/12/11 13:29:44;;;;;;;0.40;0.40;;;;;;;;;;5045935;28;20123;-65
2023/12/11 13:32:15;;;;;;;0.30;0.30;;;;;;;;;;5047356;28;20103;-65
2023/12/11 13:34:44;;;;;;;0.40;0.40;;;;;;;;;;5044419;28;20045;-67
2023/12/11 13:37:13;;;;;;;0.60;0.40;;;;;;;;;;5034777;28;20473;-71
2023/12/11 13:39:42;;;;;;;0.50;0.50;;;;;;;;;;5042815;28;20071;-65
2023/12/11 13:42:10;;;;;;;0.55;0.40;;;;;;;;;;5049773;28;20120;-64
2023/12/11 13:44:39;;;;;;;0.32;0.32;;;;;;;;;;5048863;28;20069;-65
2023/12/11 13:47:07;;;;;;;0.30;0.30;;;;;;;;;;5048852;28;20049;-63
2023/12/11 13:49:36;;;;;;;0.80;0.40;;;;;;;;;;5046328;28;20045;-66
2023/12/11 13:52:06;;;;;;;0.30;0.30;;;;;;;;;;5048433;28;20057;-69
2023/12/11 13:54:35;;;;;;;0.40;0.40;;;;;;;;;;5047570;28;20076;-64
2023/12/11 13:57:04;;;;;;;0.30;0.30;;;;;;;;;;5049758;28;20102;-68
2023/12/11 13:59:32;;;;;;;0.40;0.40;;;;;;;;;;5045954;28;20490;-65
2023/12/11 14:02:01;;;;;;;0.57;0.50;;;;;;;;;;5046747;28;20045;-65
2023/12/11 14:04:29;;;;;;;0.43;0.43;;;;;;;;;;5047916;28;20041;-67
2023/12/11 14:06:58;;;;;;;0.40;0.40;;;;;;;;;;5046045;28;20072;-66
2023/12/11 14:09:29;;;;;;;0.47;0.40;;;;;;;;;;5050012;28;21080;-65
2023/12/11 14:12:01;;;;;;;0.45;0.45;;;;;;;;;;5050634;28;20049;-65
2023/12/11 14:14:29;;;;;;;1.35;0.60;;;;;;;;;;5046641;28;20057;-65
2023/12/11 14:16:58;;;;;;;0.70;0.50;;;;;;;;;;5047773;28;20084;-71
2023/12/11 14:19:27;;;;;;;0.60;0.50;;;;;;;;;;5045334;28;20041;-66
2023/12/11 14:21:55;;;;;;;0.30;0.30;;;;;;;;;;5034675;28;21020;-64
2023/12/11 14:24:26;;;;;;;0.30;0.30;;;;;;;;;;5045107;28;20128;-66
2023/12/11 14:26:56;;;;;;;0.35;0.35;;;;;;;;;;5047295;28;20049;-62
2023/12/11 14:29:25;;;;;;;0.45;0.45;;;;;;;;;;5048781;28;20470;-64
2023/12/11 14:31:53;;;;;;;0.40;0.40;;;;;;;;;;5047027;28;20061;-67
2023/12/11 14:34:22;;;;;;;0.60;0.38;;;;;;;;;;5046819;28;21111;-64
2023/12/11 14:36:51;;;;;;;0.30;0.30;;;;;;;;;;5043820;28;20057;-66
2023/12/11 14:39:20;;;;;;;0.40;0.40;;;;;;;;;;5047152;28;20120;-68
2023/12/11 14:41:48;;;;;;;0.40;0.40;;;;;;;;;;5045695;28;20060;-64
2023/12/11 14:44:19;;;;;;;0.50;0.50;;;;;;;;;;5039143;28;20569;-67
2023/12/11 14:46:47;;;;;;;1.23;0.50;;;;;;;;;;5043470;28;20045;-64
2023/12/11 14:49:16;;;;;;;0.40;0.40;;;;;;;;;;5045131;28;20061;-64
2023/12/11 14:51:44;;;;;;;0.47;0.47;;;;;;;;;;5046321;28;20053;-65
2023/12/11 14:54:15;;;;;;;0.77;0.47;;;;;;;;;;5044700;28;20090;-65
2023/12/11 14:56:43;;;;;;;0.40;0.40;;;;;;;;;;5045554;28;20466;-67